createdAt,value
2022-09-06T00:00:18.059Z,8.53
2022-09-06T00:02:55.487Z,8.17
2022-09-06T00:05:22.403Z,9.40
2022-09-06T00:07:49.660Z,8.37
2022-09-06T00:10:16.542Z,9.10
2022-09-06T00:12:43.338Z,10.13
2022-09-06T00:15:10.919Z,8.43
2022-09-06T00:17:37.718Z,8.30
2022-09-06T00:20:05.516Z,9.50
2022-09-06T00:22:32.559Z,10.40
2022-09-06T00:24:59.400Z,8.13
2022-09-06T00:27:26.395Z,7.50
2022-09-06T00:29:53.416Z,8.47
2022-09-06T00:32:20.202Z,16.00
2022-09-06T00:34:47.000Z,8.13
2022-09-06T00:37:14.164Z,6.83
2022-09-06T00:39:41.108Z,6.33
2022-09-06T00:42:10.008Z,10.00
2022-09-06T00:44:37.967Z,7.10
2022-09-06T00:47:06.300Z,7.40
2022-09-06T00:49:41.322Z,7.20
2022-09-06T00:52:12.107Z,6.73
2022-09-06T00:54:39.984Z,8.03
2022-09-06T00:57:07.305Z,14.40
2022-09-06T00:59:37.628Z,7.70
2022-09-06T01:02:05.666Z,8.77
2022-09-06T01:04:33.380Z,8.87
2022-09-06T01:07:06.718Z,7.87
2022-09-06T01:09:48.429Z,9.80
2022-09-06T01:12:58.683Z,11.37
2022-09-06T01:15:28.308Z,10.73
2022-09-06T01:18:32.025Z,6.83
2022-09-06T01:21:10.494Z,12.73
2022-09-06T01:24:34.816Z,8.30
2022-09-06T01:27:25.963Z,7.30
2022-09-06T01:30:04.140Z,6.73
2022-09-06T01:32:39.212Z,9.47
2022-09-06T01:35:20.526Z,9.23
2022-09-06T01:37:48.207Z,7.60
2022-09-06T01:40:15.500Z,12.13
2022-09-06T01:42:45.099Z,6.90
2022-09-06T01:45:16.810Z,7.43
2022-09-06T01:48:08.203Z,9.57
2022-09-06T01:50:47.710Z,9.53
2022-09-06T01:53:42.395Z,8.53
2022-09-06T01:56:31.736Z,8.87
2022-09-06T01:59:01.455Z,8.40
2022-09-06T02:01:37.053Z,7.10
2022-09-06T02:04:12.756Z,8.37
2022-09-06T02:06:45.186Z,7.90
2022-09-06T02:09:19.866Z,8.40
2022-09-06T02:11:51.671Z,7.63
2022-09-06T02:14:23.473Z,8.40
2022-09-06T02:16:53.862Z,11.30
2022-09-06T02:19:29.940Z,7.40
2022-09-06T02:21:58.374Z,7.67
2022-09-06T02:24:30.684Z,11.27
2022-09-06T02:26:57.721Z,8.13
2022-09-06T02:29:24.741Z,8.43
2022-09-06T02:32:01.780Z,8.13
2022-09-06T02:34:29.189Z,8.90
2022-09-06T02:36:56.424Z,8.70
2022-09-06T02:39:23.307Z,9.33
2022-09-06T02:41:50.159Z,7.47
2022-09-06T02:44:17.227Z,8.23
2022-09-06T02:46:44.023Z,8.60
2022-09-06T02:49:10.842Z,15.00
2022-09-06T02:51:39.545Z,7.47
2022-09-06T02:54:06.692Z,11.90
2022-09-06T02:56:34.550Z,7.57
2022-09-06T02:59:01.548Z,12.87
2022-09-06T03:01:28.359Z,9.73
2022-09-06T03:03:56.108Z,7.97
2022-09-06T03:06:23.383Z,8.23
2022-09-06T03:08:50.371Z,10.00
2022-09-06T03:11:17.614Z,10.10
2022-09-06T03:13:44.632Z,6.30
2022-09-06T03:16:11.673Z,8.77
2022-09-06T03:18:38.508Z,10.77
2022-09-06T03:21:05.728Z,10.10
2022-09-06T03:23:32.532Z,9.10
2022-09-06T03:25:59.334Z,9.10
2022-09-06T03:28:26.996Z,12.00
2022-09-06T03:30:54.037Z,9.83
2022-09-06T03:33:21.214Z,11.17
2022-09-06T03:35:54.394Z,8.90
2022-09-06T03:38:22.220Z,7.20
2022-09-06T03:40:49.838Z,9.33
2022-09-06T03:43:17.892Z,8.50
2022-09-06T03:45:47.003Z,8.83
2022-09-06T03:48:14.809Z,8.33
2022-09-06T03:50:49.660Z,9.87
2022-09-06T03:53:17.928Z,12.50
2022-09-06T03:55:49.551Z,12.63
2022-09-06T03:58:17.775Z,14.67
2022-09-06T04:00:45.313Z,11.38
2022-09-06T04:03:12.917Z,11.63
2022-09-06T04:05:39.804Z,12.23
2022-09-06T04:08:06.885Z,11.30
2022-09-06T04:10:34.019Z,13.20
2022-09-06T04:13:00.866Z,11.53
2022-09-06T04:15:27.894Z,9.50
2022-09-06T04:17:54.724Z,14.07
2022-09-06T04:20:21.734Z,8.53
2022-09-06T04:22:48.726Z,12.30
2022-09-06T04:25:15.838Z,10.00
2022-09-06T04:27:42.626Z,8.90
2022-09-06T04:30:10.024Z,9.83
2022-09-06T04:32:36.960Z,11.47
2022-09-06T04:35:04.088Z,18.53
2022-09-06T04:37:31.103Z,13.17
2022-09-06T04:39:57.980Z,9.63
2022-09-06T04:42:24.854Z,8.63
2022-09-06T04:44:51.902Z,7.80
2022-09-06T04:47:19.368Z,6.87
2022-09-06T04:49:49.480Z,10.38
2022-09-06T04:52:17.010Z,15.80
2022-09-06T04:54:43.936Z,10.77
2022-09-06T04:57:10.834Z,6.97
2022-09-06T04:59:37.943Z,8.05
2022-09-06T05:02:04.935Z,7.53
2022-09-06T05:04:31.775Z,6.07
2022-09-06T05:07:06.629Z,6.43
2022-09-06T05:09:33.922Z,9.05
2022-09-06T05:12:01.752Z,10.88
2022-09-06T05:14:29.095Z,13.25
2022-09-06T05:16:56.015Z,8.55
2022-09-06T05:19:23.252Z,8.75
2022-09-06T05:21:51.903Z,8.32
2022-09-06T05:24:19.023Z,5.82
2022-09-06T05:26:45.993Z,10.98
2022-09-06T05:29:13.065Z,10.95
2022-09-06T05:31:39.963Z,12.07
2022-09-06T05:34:06.987Z,14.77
2022-09-06T05:36:34.144Z,12.20
2022-09-06T05:39:00.967Z,12.27
2022-09-06T05:41:28.082Z,14.00
2022-09-06T05:43:55.219Z,10.13
2022-09-06T05:46:22.127Z,8.25
2022-09-06T05:49:04.855Z,8.02
2022-09-06T05:51:32.877Z,12.07
2022-09-06T05:54:00.070Z,10.10
2022-09-06T05:56:26.852Z,7.45
2022-09-06T05:58:53.799Z,7.78
2022-09-06T06:01:26.899Z,8.15
2022-09-06T06:03:55.297Z,10.05
2022-09-06T06:06:23.395Z,9.75
2022-09-06T06:08:50.239Z,12.75
2022-09-06T06:11:17.739Z,8.82
2022-09-06T06:13:44.939Z,10.25
2022-09-06T06:16:14.052Z,9.32
2022-09-06T06:18:41.039Z,9.80
2022-09-06T06:21:22.612Z,10.88
2022-09-06T06:23:52.362Z,8.32
2022-09-06T06:26:20.126Z,9.98
2022-09-06T06:28:47.143Z,11.70
2022-09-06T06:31:15.343Z,12.48
2022-09-06T06:33:42.716Z,10.57
2022-09-06T06:36:12.228Z,10.13
2022-09-06T06:38:40.653Z,9.50
2022-09-06T06:41:09.555Z,7.85
2022-09-06T06:43:37.881Z,10.10
2022-09-06T06:46:13.479Z,16.10
2022-09-06T06:48:41.999Z,8.88
2022-09-06T06:51:13.314Z,12.85
2022-09-06T06:53:40.206Z,10.40
2022-09-06T06:56:19.339Z,15.10
2022-09-06T06:58:48.547Z,13.75
2022-09-06T07:01:16.792Z,15.65
2022-09-06T07:03:43.772Z,14.13
2022-09-06T07:06:10.995Z,14.70
2022-09-06T07:08:38.621Z,10.33
2022-09-06T07:11:07.298Z,9.25
2022-09-06T07:16:20.260Z,6.90
2022-09-06T07:18:50.298Z,6.55
2022-09-06T07:24:10.642Z,6.60
2022-09-06T07:26:40.246Z,7.30
2022-09-06T07:29:08.157Z,9.30
2022-09-06T07:34:25.214Z,4.78
2022-09-06T07:36:56.369Z,7.43
2022-09-06T07:39:23.708Z,5.97
2022-09-06T07:41:50.797Z,3.47
2022-09-06T07:44:17.578Z,9.07
2022-09-06T07:46:44.836Z,4.32
2022-09-06T07:49:11.769Z,9.10
2022-09-06T07:51:38.553Z,4.93
2022-09-06T07:54:29.232Z,3.75
2022-09-06T07:56:53.816Z,4.90
2022-09-06T07:59:20.890Z,5.65
2022-09-06T08:01:48.361Z,3.47
2022-09-06T08:04:15.706Z,5.13
2022-09-06T08:09:33.495Z,4.63
2022-09-06T08:12:06.720Z,5.20
2022-09-06T08:14:34.340Z,4.70
2022-09-06T08:17:02.120Z,5.88
2022-09-06T08:19:28.976Z,9.40
2022-09-06T08:21:56.186Z,7.10
2022-09-06T08:24:23.384Z,4.10
2022-09-06T08:26:50.374Z,7.53
2022-09-06T08:29:17.401Z,7.70
2022-09-06T08:31:45.289Z,4.60
2022-09-06T08:34:12.907Z,12.65
2022-09-06T08:36:40.440Z,4.55
2022-09-06T08:39:10.048Z,2.25
2022-09-06T08:41:58.592Z,4.10
2022-09-06T08:47:22.965Z,4.65
2022-09-06T08:50:07.501Z,4.30
2022-09-06T08:53:06.505Z,5.88
2022-09-06T08:55:52.948Z,4.15
2022-09-06T08:58:37.726Z,3.00
2022-09-06T09:01:14.433Z,3.20
2022-09-06T09:03:43.394Z,4.05
2022-09-06T09:06:10.888Z,4.88
2022-09-06T09:09:03.755Z,3.40
2022-09-06T09:11:33.603Z,3.25
2022-09-06T09:14:04.194Z,4.82
2022-09-06T09:16:31.409Z,3.50
2022-09-06T09:19:02.520Z,1.73
2022-09-06T09:21:33.533Z,3.28
2022-09-06T09:24:07.019Z,2.15
2022-09-06T09:26:51.296Z,4.10
2022-09-06T09:29:18.506Z,2.85
2022-09-06T09:31:58.510Z,3.33
2022-09-06T09:34:39.924Z,4.32
2022-09-06T09:40:33.474Z,7.28
2022-09-06T09:43:15.085Z,3.05
2022-09-06T09:45:43.369Z,2.33
2022-09-06T09:48:27.143Z,5.45
2022-09-06T09:50:56.125Z,2.97
2022-09-06T09:53:24.349Z,3.35
2022-09-06T09:55:59.006Z,11.73
2022-09-06T09:58:36.284Z,3.22
2022-09-06T10:01:23.086Z,3.83
2022-09-06T10:09:36.298Z,4.88
2022-09-06T10:12:03.533Z,4.35
2022-09-06T10:14:42.142Z,3.08
2022-09-06T10:17:17.628Z,2.53
2022-09-06T10:19:45.784Z,2.20
2022-09-06T10:22:25.589Z,3.22
2022-09-06T10:25:19.247Z,4.82
2022-09-06T10:28:11.645Z,5.88
2022-09-06T10:31:12.960Z,7.68
2022-09-06T10:34:12.336Z,4.00
2022-09-06T10:36:45.595Z,2.95
2022-09-06T10:39:30.944Z,3.50
2022-09-06T10:42:02.578Z,2.90
2022-09-06T10:44:45.809Z,6.95
2022-09-06T10:47:14.961Z,3.70
2022-09-06T10:49:45.628Z,5.07
2022-09-06T10:52:19.024Z,3.75
2022-09-06T10:54:47.418Z,2.28
2022-09-06T11:00:14.916Z,6.00
2022-09-06T11:05:54.572Z,6.60
2022-09-06T11:08:51.172Z,5.15
2022-09-06T11:12:16.132Z,2.38
2022-09-06T11:14:43.020Z,3.53
2022-09-06T11:17:41.120Z,2.47
2022-09-06T11:20:08.087Z,4.53
2022-09-06T11:22:53.424Z,7.20
2022-09-06T11:25:54.506Z,6.35
2022-09-06T11:28:52.676Z,3.40
2022-09-06T11:34:22.693Z,4.63
2022-09-06T11:36:56.165Z,3.92
2022-09-06T11:42:49.366Z,3.30
2022-09-06T11:45:38.698Z,3.83
2022-09-06T11:48:23.626Z,3.80
2022-09-06T11:50:53.663Z,2.05
2022-09-06T11:53:33.971Z,3.00
2022-09-06T11:56:00.894Z,1.85
2022-09-06T11:58:51.318Z,4.93
2022-09-06T12:01:18.955Z,4.95
2022-09-06T12:04:05.479Z,9.02
2022-09-06T12:06:40.083Z,3.10
2022-09-06T12:09:28.563Z,2.45
2022-09-06T12:14:42.591Z,12.40
2022-09-06T12:17:09.945Z,3.92
2022-09-06T12:19:54.893Z,4.38
2022-09-06T12:22:27.697Z,3.45
2022-09-06T12:25:17.054Z,3.03
2022-09-06T12:27:56.374Z,2.75
2022-09-06T12:30:38.860Z,5.00
2022-09-06T12:33:24.663Z,1.90
2022-09-06T12:38:25.913Z,3.90
2022-09-06T12:40:58.450Z,2.85
2022-09-06T12:43:27.016Z,8.60
2022-09-06T12:45:54.053Z,1.92
2022-09-06T12:48:35.365Z,5.13
2022-09-06T12:51:06.906Z,5.90
2022-09-06T12:53:35.084Z,1.85
2022-09-06T12:56:04.819Z,2.75
2022-09-06T12:58:32.124Z,5.28
2022-09-06T13:01:07.790Z,4.88
2022-09-06T13:03:45.444Z,2.72
2022-09-06T13:06:24.545Z,5.60
2022-09-06T13:08:56.107Z,4.90
2022-09-06T13:11:28.234Z,6.53
2022-09-06T13:13:55.851Z,4.28
2022-09-06T13:16:26.058Z,3.00
2022-09-06T13:18:53.424Z,3.35
2022-09-06T13:21:35.674Z,2.83
2022-09-06T13:24:19.685Z,3.60
2022-09-06T13:26:46.810Z,4.45
2022-09-06T13:29:16.440Z,7.20
2022-09-06T13:31:47.582Z,6.45
2022-09-06T13:34:28.330Z,9.95
2022-09-06T13:37:01.527Z,11.32
2022-09-06T13:39:33.439Z,5.90
2022-09-06T13:42:08.803Z,8.10
2022-09-06T13:44:38.147Z,4.28
2022-09-06T13:47:05.572Z,2.58
2022-09-06T13:49:33.928Z,6.85
2022-09-06T13:52:03.890Z,7.35
2022-09-06T13:54:33.460Z,3.55
2022-09-06T13:57:01.853Z,2.78
2022-09-06T13:59:30.416Z,8.27
2022-09-06T14:02:09.958Z,2.73
2022-09-06T14:04:37.158Z,5.22
2022-09-06T14:07:05.375Z,6.80
2022-09-06T14:09:32.720Z,5.25
2022-09-06T14:12:00.846Z,2.85
2022-09-06T14:14:27.680Z,5.20
2022-09-06T14:16:54.488Z,4.55
2022-09-06T14:19:21.883Z,5.57
2022-09-06T14:21:48.918Z,6.07
2022-09-06T14:24:15.790Z,4.25
2022-09-06T14:26:42.886Z,14.75
2022-09-06T14:29:09.748Z,2.42
2022-09-06T14:31:36.629Z,2.05
2022-09-06T14:34:04.223Z,2.42
2022-09-06T14:36:33.211Z,4.82
2022-09-06T14:39:01.565Z,4.47
2022-09-06T14:41:28.848Z,2.90
2022-09-06T14:43:57.841Z,42.67
2022-09-06T14:46:27.446Z,5.78
2022-09-06T14:49:10.071Z,5.00
2022-09-06T14:51:38.622Z,4.10
2022-09-06T14:54:11.714Z,9.25
2022-09-06T14:56:40.477Z,2.50
2022-09-06T14:59:09.237Z,5.60
2022-09-06T15:01:38.599Z,2.17
2022-09-06T15:04:07.995Z,11.73
2022-09-06T15:06:37.082Z,4.07
2022-09-06T15:11:53.612Z,6.00
2022-09-06T15:16:55.980Z,3.88
2022-09-06T15:19:28.089Z,10.00
2022-09-06T15:21:56.307Z,18.70
2022-09-06T15:24:23.607Z,8.43
2022-09-06T15:26:50.669Z,8.48
2022-09-06T15:29:17.718Z,16.60
2022-09-06T15:31:50.186Z,17.75
2022-09-06T15:34:22.606Z,37.63
2022-09-06T15:36:50.613Z,19.30
2022-09-06T15:39:18.027Z,20.70
2022-09-06T15:41:45.113Z,34.70
2022-09-06T15:44:17.037Z,28.85
2022-09-06T15:46:50.150Z,8.18
2022-09-06T15:49:27.474Z,6.18
2022-09-06T15:51:56.656Z,7.20
2022-09-06T15:54:42.402Z,12.57
2022-09-06T15:57:09.584Z,32.78
2022-09-06T15:59:36.657Z,11.90
2022-09-06T16:02:03.680Z,12.00
2022-09-06T16:04:30.768Z,15.73
2022-09-06T16:06:58.751Z,29.20
2022-09-06T16:09:25.816Z,59.45
2022-09-06T16:11:52.817Z,58.22
2022-09-06T16:14:20.335Z,10.23
2022-09-06T16:16:47.561Z,5.95
2022-09-06T16:19:14.418Z,11.50
2022-09-06T16:21:43.261Z,51.42
2022-09-06T16:24:13.328Z,19.15
2022-09-06T16:26:42.905Z,22.48
2022-09-06T16:29:11.804Z,22.33
2022-09-06T16:31:40.488Z,43.28
2022-09-06T16:34:12.040Z,43.55
2022-09-06T16:36:39.398Z,14.00
2022-09-06T16:39:07.224Z,11.77
2022-09-06T16:41:37.075Z,27.42
2022-09-06T16:44:04.351Z,16.63
2022-09-06T16:46:31.321Z,11.43
2022-09-06T16:49:04.499Z,77.13
2022-09-06T16:51:32.058Z,30.65
2022-09-06T16:54:00.580Z,20.13
2022-09-06T16:56:33.321Z,31.90
2022-09-06T16:59:02.647Z,25.42
2022-09-06T17:01:31.318Z,17.33
2022-09-06T17:04:00.906Z,70.25
2022-09-06T17:06:29.290Z,23.73
2022-09-06T17:09:00.124Z,21.30
2022-09-06T17:11:28.510Z,27.98
2022-09-06T17:13:56.715Z,18.52
2022-09-06T17:16:43.420Z,18.70
2022-09-06T17:19:11.192Z,15.95
2022-09-06T17:21:39.308Z,21.33
2022-09-06T17:24:07.828Z,15.48
2022-09-06T17:26:37.937Z,24.23
2022-09-06T17:29:05.482Z,26.02
2022-09-06T17:31:32.431Z,24.90
2022-09-06T17:34:02.344Z,23.25
2022-09-06T17:36:31.786Z,18.52
2022-09-06T17:39:01.922Z,24.13
2022-09-06T17:41:34.786Z,18.95
2022-09-06T17:44:01.673Z,24.63
2022-09-06T17:46:29.206Z,28.75
2022-09-06T17:48:56.951Z,23.95
2022-09-06T17:51:24.856Z,21.73
2022-09-06T17:53:53.019Z,61.70
2022-09-06T17:56:20.780Z,27.23
2022-09-06T17:58:59.417Z,23.95
2022-09-06T18:01:29.705Z,23.25
2022-09-06T18:03:57.321Z,22.40
2022-09-06T18:06:25.885Z,46.72
2022-09-06T18:08:55.263Z,32.03
2022-09-06T18:11:27.358Z,21.42
2022-09-06T18:14:05.180Z,27.80
2022-09-06T18:16:34.055Z,31.70
2022-09-06T18:19:04.634Z,26.25
2022-09-06T18:21:33.861Z,27.27
2022-09-06T18:26:27.943Z,31.90
2022-09-06T18:28:54.846Z,32.90
2022-09-06T18:31:24.178Z,27.60
2022-09-06T18:33:51.628Z,28.58
2022-09-06T18:36:19.719Z,25.70
2022-09-06T18:38:46.846Z,31.02
2022-09-06T18:41:34.305Z,30.73
2022-09-06T18:44:02.971Z,39.33
2022-09-06T18:46:31.928Z,33.13
2022-09-06T18:48:59.275Z,36.78
2022-09-06T18:51:26.712Z,32.70
2022-09-06T18:53:56.258Z,31.95
2022-09-06T18:56:23.524Z,33.72
2022-09-06T18:58:51.939Z,37.83
2022-09-06T19:01:20.931Z,32.88
2022-09-06T19:03:47.839Z,37.00
2022-09-06T19:06:17.057Z,31.15
2022-09-06T19:11:16.571Z,39.45
2022-09-06T19:13:45.470Z,35.70
2022-09-06T19:16:14.170Z,33.65
2022-09-06T19:18:41.910Z,24.35
2022-09-06T19:21:14.618Z,38.30
2022-09-06T19:23:44.906Z,30.33
2022-09-06T19:26:14.645Z,30.40
2022-09-06T19:28:41.615Z,30.02
2022-09-06T19:31:15.941Z,28.38
2022-09-06T19:33:44.498Z,26.87
2022-09-06T19:36:12.612Z,32.72
2022-09-06T19:39:02.519Z,31.80
2022-09-06T19:41:28.848Z,37.45
2022-09-06T19:43:57.254Z,34.43
2022-09-06T19:46:25.105Z,32.13
2022-09-06T19:48:54.235Z,28.13
2022-09-06T19:51:21.855Z,28.85
2022-09-06T19:53:54.168Z,31.35
2022-09-06T19:56:23.723Z,28.93
2022-09-06T20:01:20.998Z,34.53
2022-09-06T20:03:48.444Z,34.73
2022-09-06T20:06:15.655Z,30.17
2022-09-06T20:08:42.650Z,31.83
2022-09-06T20:11:12.729Z,38.50
2022-09-06T20:13:40.518Z,29.93
2022-09-06T20:16:09.583Z,29.30
2022-09-06T20:21:06.004Z,28.83
2022-09-06T20:23:34.547Z,27.93
2022-09-06T20:26:07.265Z,37.53
2022-09-06T20:28:35.023Z,27.63
2022-09-06T20:31:04.561Z,25.67
2022-09-06T20:33:32.419Z,33.60
2022-09-06T20:36:04.928Z,33.47
2022-09-06T20:38:33.894Z,30.57
2022-09-06T20:41:10.064Z,30.10
2022-09-06T20:43:38.669Z,28.20
2022-09-06T20:46:17.492Z,30.25
2022-09-06T20:48:45.830Z,29.92
2022-09-06T20:51:15.987Z,25.10
2022-09-06T20:53:42.828Z,27.77
2022-09-06T20:56:16.045Z,30.37
2022-09-06T20:58:47.429Z,33.00
2022-09-06T21:01:16.648Z,25.10
2022-09-06T21:03:43.477Z,22.83
2022-09-06T21:06:12.390Z,28.83
2022-09-06T21:08:42.647Z,23.35
2022-09-06T21:11:10.393Z,27.10
2022-09-06T21:13:38.095Z,34.60
2022-09-06T21:16:06.382Z,24.77
2022-09-06T21:18:34.704Z,24.83
2022-09-06T21:21:04.783Z,24.87
2022-09-06T21:23:35.050Z,24.00
2022-09-06T21:26:04.811Z,26.97
2022-09-06T21:28:34.150Z,27.20
2022-09-06T21:31:15.991Z,21.30
2022-09-06T21:33:48.389Z,23.93
2022-09-06T21:36:17.460Z,26.67
2022-09-06T21:38:46.670Z,23.88
2022-09-06T21:41:15.089Z,27.13
2022-09-06T21:43:42.957Z,27.83
2022-09-06T21:46:15.372Z,27.10
2022-09-06T21:48:44.431Z,26.80
2022-09-06T21:51:16.200Z,24.98
2022-09-06T21:53:45.887Z,26.63
2022-09-06T21:56:13.366Z,27.47
2022-09-06T21:58:40.587Z,31.50
2022-09-06T22:01:08.864Z,27.40
2022-09-06T22:03:39.131Z,25.45
2022-09-06T22:06:11.611Z,24.33
2022-09-06T22:08:39.109Z,23.50
2022-09-06T22:11:10.085Z,23.87
2022-09-06T22:13:37.261Z,24.23
2022-09-06T22:16:07.812Z,23.73
2022-09-06T22:18:35.972Z,29.23
2022-09-06T22:21:05.679Z,30.93
2022-09-06T22:23:33.369Z,28.57
2022-09-06T22:26:12.083Z,27.67
2022-09-06T22:28:40.380Z,34.63
2022-09-06T22:31:08.461Z,28.30
2022-09-06T22:33:35.746Z,28.37
2022-09-06T22:36:03.851Z,22.47
2022-09-06T22:38:31.253Z,25.57
2022-09-06T22:40:58.518Z,23.63
2022-09-06T22:43:26.418Z,29.07
2022-09-06T22:45:53.357Z,23.40
2022-09-06T22:48:20.590Z,27.70
2022-09-06T22:50:47.693Z,21.63
2022-09-06T22:53:14.656Z,23.70
2022-09-06T22:55:47.265Z,24.20
2022-09-06T22:58:14.411Z,23.33
2022-09-06T23:00:41.355Z,23.67
2022-09-06T23:03:08.269Z,27.70
2022-09-06T23:05:35.715Z,24.83
2022-09-06T23:08:03.699Z,28.10
2022-09-06T23:10:31.462Z,28.00
2022-09-06T23:12:59.007Z,24.53
2022-09-06T23:15:26.127Z,28.33
2022-09-06T23:17:53.136Z,26.17
2022-09-06T23:20:20.164Z,27.07
2022-09-06T23:22:48.092Z,26.47
2022-09-06T23:25:15.040Z,26.57
2022-09-06T23:27:42.205Z,23.07
2022-09-06T23:30:10.035Z,23.43
2022-09-06T23:32:38.096Z,24.50
2022-09-06T23:35:05.940Z,22.20
2022-09-06T23:37:32.848Z,31.23
2022-09-06T23:39:59.717Z,26.97
2022-09-06T23:42:26.956Z,26.43
2022-09-06T23:44:57.616Z,20.57
2022-09-06T23:47:24.842Z,23.50
2022-09-06T23:49:51.993Z,24.43
2022-09-06T23:52:19.042Z,23.73
2022-09-06T23:54:45.899Z,25.10
2022-09-06T23:57:13.028Z,29.50
2022-09-06T23:59:39.922Z,29.03
